createdAt,value
2022-12-31T00:00:48.921Z,98508.94
2022-12-31T00:04:03.606Z,98506.00
2022-12-31T00:07:06.853Z,98509.56
2022-12-31T00:10:11.212Z,98526.28
2022-12-31T00:13:15.275Z,98532.94
2022-12-31T00:16:23.393Z,98504.44
2022-12-31T00:19:26.615Z,98506.69
2022-12-31T00:22:30.046Z,98505.56
2022-12-31T00:25:35.997Z,98500.88
2022-12-31T00:28:42.013Z,98512.84
2022-12-31T00:31:46.611Z,98513.69
2022-12-31T00:34:50.279Z,98506.53
2022-12-31T00:37:53.931Z,98504.13
2022-12-31T00:40:57.762Z,98506.53
2022-12-31T00:44:01.343Z,98503.78
2022-12-31T00:47:06.555Z,98506.22
2022-12-31T00:50:10.679Z,98514.81
2022-12-31T00:53:14.820Z,98500.25
2022-12-31T00:56:21.763Z,98496.31
2022-12-31T00:59:25.663Z,98499.59
2022-12-31T01:02:30.377Z,98499.28
2022-12-31T01:05:36.110Z,98508.34
2022-12-31T01:08:40.239Z,98504.28
2022-12-31T01:11:44.655Z,98511.09
2022-12-31T01:14:47.876Z,98497.31
2022-12-31T01:17:53.074Z,98502.22
2022-12-31T01:20:56.295Z,98489.38
2022-12-31T01:24:00.682Z,98499.28
2022-12-31T01:27:03.920Z,98486.94
2022-12-31T01:30:09.115Z,98480.28
2022-12-31T01:33:13.766Z,98475.59
2022-12-31T01:36:25.294Z,98454.97
2022-12-31T01:39:29.043Z,98455.31
2022-12-31T01:42:33.165Z,98470.53
2022-12-31T01:45:36.483Z,98459.53
2022-12-31T01:48:41.583Z,98460.66
2022-12-31T01:51:50.426Z,98456.59
2022-12-31T01:55:00.750Z,98460.78
2022-12-31T01:58:09.822Z,98465.47
2022-12-31T02:01:22.082Z,98465.78
2022-12-31T02:04:28.794Z,98480.38
2022-12-31T02:07:32.901Z,98466.44
2022-12-31T02:10:36.957Z,98468.84
2022-12-31T02:13:40.805Z,98448.78
2022-12-31T02:16:55.267Z,98449.44
2022-12-31T02:20:41.110Z,98439.09
2022-12-31T02:24:32.579Z,98432.78
2022-12-31T02:27:54.505Z,98433.53
2022-12-31T02:31:10.682Z,98424.13
2022-12-31T02:34:24.102Z,98431.28
2022-12-31T02:37:33.088Z,98419.75
2022-12-31T02:40:39.726Z,98414.75
2022-12-31T02:43:47.887Z,98425.16
2022-12-31T02:47:09.190Z,98421.25
2022-12-31T02:50:34.115Z,98422.88
2022-12-31T02:54:04.103Z,98436.16
2022-12-31T02:57:19.453Z,98438.53
2022-12-31T03:00:41.666Z,98436.44
2022-12-31T03:03:46.785Z,98435.94
2022-12-31T03:06:52.333Z,98417.47
2022-12-31T03:09:56.954Z,98434.81
2022-12-31T03:13:02.058Z,98448.09
2022-12-31T03:16:05.638Z,98465.75
2022-12-31T03:19:24.641Z,98455.72
2022-12-31T03:22:28.456Z,98451.97
2022-12-31T03:25:35.099Z,98449.22
2022-12-31T03:28:40.761Z,98459.13
2022-12-31T03:31:44.495Z,98455.53
2022-12-31T03:34:49.465Z,98477.28
2022-12-31T03:37:53.948Z,98461.88
2022-12-31T03:40:57.457Z,98473.69
2022-12-31T03:44:02.619Z,98473.69
2022-12-31T03:47:06.520Z,98478.09
2022-12-31T03:50:15.619Z,98472.13
2022-12-31T03:53:19.495Z,98493.19
2022-12-31T03:56:23.161Z,98460.59
2022-12-31T03:59:26.377Z,98470.81
2022-12-31T04:02:30.033Z,98484.91
2022-12-31T04:05:35.002Z,98489.78
2022-12-31T04:08:38.521Z,98505.84
2022-12-31T04:11:41.879Z,98500.31
2022-12-31T04:14:45.816Z,98485.38
2022-12-31T04:17:49.822Z,98499.16
2022-12-31T04:20:54.884Z,98485.88
2022-12-31T04:23:58.265Z,98502.25
2022-12-31T04:27:07.287Z,98521.22
2022-12-31T04:30:14.082Z,98513.75
2022-12-31T04:33:17.887Z,98523.97
2022-12-31T04:36:22.840Z,98525.59
2022-12-31T04:39:26.834Z,98519.59
2022-12-31T04:42:30.100Z,98519.59
2022-12-31T04:45:33.967Z,98533.38
2022-12-31T04:48:37.774Z,98521.53
2022-12-31T04:51:43.190Z,98528.34
2022-12-31T04:54:47.481Z,98508.09
2022-12-31T04:57:51.175Z,98520.72
2022-12-31T05:00:55.667Z,98496.25
2022-12-31T05:03:59.485Z,98509.72
2022-12-31T05:07:04.565Z,98512.16
2022-12-31T05:10:09.250Z,98525.13
2022-12-31T05:13:13.193Z,98517.66
2022-12-31T05:16:17.080Z,98510.19
2022-12-31T05:19:20.467Z,98514.56
2022-12-31T05:22:31.273Z,98490.28
2022-12-31T05:25:35.792Z,98487.00
2022-12-31T05:28:39.845Z,98502.72
2022-12-31T05:31:43.177Z,98499.97
2022-12-31T05:34:46.873Z,98517.31
2022-12-31T05:37:51.631Z,98518.97
2022-12-31T05:41:02.160Z,98522.72
2022-12-31T05:44:06.054Z,98516.84
2022-12-31T05:47:10.218Z,98519.25
2022-12-31T05:50:16.443Z,98507.13
2022-12-31T05:53:21.769Z,98531.91
2022-12-31T05:56:25.287Z,98527.06
2022-12-31T05:59:28.843Z,98542.78
2022-12-31T06:02:32.066Z,98538.91
2022-12-31T06:05:35.987Z,98541.66
2022-12-31T06:08:40.688Z,98546.00
2022-12-31T06:11:44.794Z,98544.41
2022-12-31T06:14:48.083Z,98552.66
2022-12-31T06:17:51.922Z,98552.66
2022-12-31T06:20:55.221Z,98544.88
2022-12-31T06:24:01.220Z,98536.81
2022-12-31T06:27:04.433Z,98545.38
2022-12-31T06:30:10.489Z,98554.16
2022-12-31T06:33:13.833Z,98553.34
2022-12-31T06:36:17.531Z,98551.91
2022-12-31T06:39:22.361Z,98556.78
2022-12-31T06:42:29.261Z,98558.22
2022-12-31T06:45:32.455Z,98562.94
2022-12-31T06:48:36.965Z,98554.63
2022-12-31T06:51:40.255Z,98565.25
2022-12-31T06:54:46.167Z,98562.78
2022-12-31T06:57:50.142Z,98569.56
2022-12-31T07:01:22.421Z,98576.88
2022-12-31T07:05:08.867Z,98587.28
2022-12-31T07:08:30.383Z,98603.13
2022-12-31T07:11:48.109Z,98592.28
2022-12-31T07:15:00.948Z,98589.84
2022-12-31T07:18:19.023Z,98579.31
2022-12-31T07:21:34.587Z,98580.97
2022-12-31T07:24:38.914Z,98577.19
2022-12-31T07:28:06.318Z,98588.50
2022-12-31T07:31:23.080Z,98600.75
2022-12-31T07:34:43.815Z,98581.16
2022-12-31T07:38:01.715Z,98577.78
2022-12-31T07:41:18.879Z,98577.47
2022-12-31T07:44:45.873Z,98579.47
2022-12-31T07:47:50.374Z,98574.22
2022-12-31T07:50:56.864Z,98583.16
2022-12-31T07:54:00.466Z,98585.91
2022-12-31T07:57:03.997Z,98582.84
2022-12-31T08:00:14.567Z,98589.06
2022-12-31T08:03:48.861Z,98592.47
2022-12-31T08:07:08.762Z,98602.53
2022-12-31T08:10:23.221Z,98607.06
2022-12-31T08:13:28.026Z,98610.94
2022-12-31T08:16:33.711Z,98596.94
2022-12-31T08:19:38.153Z,98591.13
2022-12-31T08:23:16.552Z,98605.47
2022-12-31T08:26:34.199Z,98621.22
2022-12-31T08:29:56.032Z,98614.41
2022-12-31T08:33:14.783Z,98634.91
2022-12-31T08:36:34.008Z,98624.06
2022-12-31T08:40:00.903Z,98620.56
2022-12-31T08:43:26.118Z,98618.22
2022-12-31T08:46:42.138Z,98616.72
2022-12-31T08:49:47.961Z,98611.88
2022-12-31T08:52:52.539Z,98624.75
2022-12-31T08:56:07.142Z,98606.09
2022-12-31T08:59:45.148Z,98599.16
2022-12-31T09:03:15.799Z,98616.41
2022-12-31T09:06:30.414Z,98607.81
2022-12-31T09:09:50.222Z,98606.34
2022-12-31T09:13:16.462Z,98621.94
2022-12-31T09:16:33.726Z,98606.34
2022-12-31T09:19:37.251Z,98600.31
2022-12-31T09:22:43.909Z,98607.00
2022-12-31T09:26:00.982Z,98601.44
2022-12-31T09:29:24.208Z,98606.50
2022-12-31T09:33:00.877Z,98591.84
2022-12-31T09:36:09.339Z,98600.34
2022-12-31T09:39:28.831Z,98602.59
2022-12-31T09:43:13.458Z,98585.53
2022-12-31T09:47:13.855Z,98592.50
2022-12-31T09:51:00.519Z,98598.84
2022-12-31T09:54:44.608Z,98598.03
2022-12-31T09:58:02.246Z,98582.72
2022-12-31T10:01:24.619Z,98590.19
2022-12-31T10:04:53.266Z,98575.56
2022-12-31T10:08:11.761Z,98582.66
2022-12-31T10:11:30.425Z,98582.28
2022-12-31T10:14:58.658Z,98575.16
2022-12-31T10:18:19.109Z,98579.34
2022-12-31T10:21:45.237Z,98569.41
2022-12-31T10:25:38.572Z,98579.94
2022-12-31T10:28:56.092Z,98592.91
2022-12-31T10:32:18.170Z,98577.16
2022-12-31T10:35:37.260Z,98572.25
2022-12-31T10:39:07.484Z,98567.41
2022-12-31T10:43:04.672Z,98567.41
2022-12-31T10:47:02.094Z,98568.03
2022-12-31T10:50:40.095Z,98572.22
2022-12-31T10:55:00.366Z,98561.84
2022-12-31T10:58:58.252Z,98581.94
2022-12-31T11:02:34.458Z,98587.88
2022-12-31T11:06:15.270Z,98570.53
2022-12-31T11:10:33.398Z,98575.72
2022-12-31T11:14:36.004Z,98558.66
2022-12-31T11:17:59.258Z,98550.50
2022-12-31T11:21:33.408Z,98574.06
2022-12-31T11:25:02.947Z,98552.94
2022-12-31T11:28:35.799Z,98579.06
2022-12-31T11:32:03.339Z,98575.81
2022-12-31T11:35:26.861Z,98562.53
2022-12-31T11:38:39.094Z,98562.19
2022-12-31T11:41:53.261Z,98550.50
2022-12-31T11:45:05.325Z,98544.50
2022-12-31T11:48:30.492Z,98546.94
2022-12-31T11:52:16.074Z,98548.25
2022-12-31T11:55:56.622Z,98527.81
2022-12-31T11:59:06.184Z,98527.28
2022-12-31T12:02:27.896Z,98537.41
2022-12-31T12:05:34.916Z,98538.84
2022-12-31T12:08:40.506Z,98519.50
2022-12-31T12:11:44.489Z,98523.38
2022-12-31T12:14:54.894Z,98529.75
2022-12-31T12:18:02.420Z,98549.63
2022-12-31T12:21:12.663Z,98534.66
2022-12-31T12:24:23.098Z,98523.88
2022-12-31T12:27:32.133Z,98530.97
2022-12-31T12:30:41.297Z,98523.81
2022-12-31T12:33:48.275Z,98521.66
2022-12-31T12:36:51.770Z,98520.59
2022-12-31T12:40:03.463Z,98506.03
2022-12-31T12:43:07.459Z,98509.75
2022-12-31T12:46:24.195Z,98509.47
2022-12-31T12:49:33.217Z,98499.63
2022-12-31T12:53:02.169Z,98508.53
2022-12-31T12:56:27.507Z,98501.59
2022-12-31T12:59:56.660Z,98496.34
2022-12-31T13:04:32.464Z,98507.13
2022-12-31T13:07:34.199Z,98515.13
2022-12-31T13:11:03.103Z,98514.63
2022-12-31T13:14:25.400Z,98527.44
2022-12-31T13:17:58.627Z,98523.66
2022-12-31T13:21:33.566Z,98518.81
2022-12-31T13:24:59.197Z,98514.88
2022-12-31T13:28:11.015Z,98508.88
2022-12-31T13:31:24.512Z,98526.47
2022-12-31T13:34:32.914Z,98529.22
2022-12-31T13:37:43.799Z,98536.53
2022-12-31T13:40:58.049Z,98550.06
2022-12-31T13:44:14.270Z,98556.06
2022-12-31T13:47:31.186Z,98548.19
2022-12-31T13:50:43.541Z,98552.13
2022-12-31T13:53:58.391Z,98546.25
2022-12-31T13:57:12.539Z,98561.75
2022-12-31T14:00:24.065Z,98551.31
2022-12-31T14:03:45.284Z,98566.00
2022-12-31T14:06:57.193Z,98550.63
2022-12-31T14:10:00.696Z,98548.88
2022-12-31T14:13:22.716Z,98550.75
2022-12-31T14:16:36.649Z,98561.84
2022-12-31T14:20:02.832Z,98565.66
2022-12-31T14:23:18.776Z,98553.88
2022-12-31T14:26:29.810Z,98561.84
2022-12-31T14:29:42.431Z,98572.94
2022-12-31T14:33:09.242Z,98565.19
2022-12-31T14:36:30.085Z,98571.47
2022-12-31T14:39:52.348Z,98562.66
2022-12-31T14:43:14.128Z,98574.31
2022-12-31T14:46:31.441Z,98567.44
2022-12-31T14:49:51.217Z,98580.44
2022-12-31T14:53:08.986Z,98576.13
2022-12-31T14:56:32.764Z,98584.66
2022-12-31T14:59:40.578Z,98568.88
2022-12-31T15:02:51.844Z,98581.56
2022-12-31T15:06:08.446Z,98577.47
2022-12-31T15:09:39.414Z,98587.56
2022-12-31T15:13:07.389Z,98599.13
2022-12-31T15:16:29.463Z,98595.75
2022-12-31T15:20:17.638Z,98588.72
2022-12-31T15:23:25.585Z,98585.06
2022-12-31T15:26:34.963Z,98600.56
2022-12-31T15:29:46.128Z,98596.59
2022-12-31T15:32:49.870Z,98591.13
2022-12-31T15:35:56.204Z,98590.31
2022-12-31T15:39:28.472Z,98607.25
2022-12-31T15:42:50.059Z,98602.22
2022-12-31T15:45:57.665Z,98608.53
2022-12-31T15:49:07.969Z,98609.81
2022-12-31T15:52:21.989Z,98618.16
2022-12-31T15:55:33.783Z,98609.75
2022-12-31T15:58:39.500Z,98618.19
2022-12-31T16:01:46.236Z,98603.72
2022-12-31T16:04:51.541Z,98621.53
2022-12-31T16:07:56.764Z,98599.34
2022-12-31T16:11:01.331Z,98611.53
2022-12-31T16:14:06.966Z,98623.13
2022-12-31T16:17:29.317Z,98625.69
2022-12-31T16:20:42.865Z,98616.94
2022-12-31T16:23:52.140Z,98613.22
2022-12-31T16:27:01.376Z,98618.91
2022-12-31T16:30:19.771Z,98601.13
2022-12-31T16:33:25.745Z,98616.66
2022-12-31T16:36:29.348Z,98618.16
2022-12-31T16:39:38.383Z,98629.09
2022-12-31T16:42:44.511Z,98622.16
2022-12-31T16:45:51.160Z,98632.28
2022-12-31T16:48:58.178Z,98629.22
2022-12-31T16:52:05.772Z,98640.47
2022-12-31T16:55:16.522Z,98625.78
2022-12-31T16:58:28.625Z,98630.97
2022-12-31T17:01:38.085Z,98628.84
2022-12-31T17:04:47.015Z,98646.66
2022-12-31T17:07:56.225Z,98643.94
2022-12-31T17:10:59.614Z,98643.47
2022-12-31T17:14:15.133Z,98634.13
2022-12-31T17:17:27.246Z,98627.75
2022-12-31T17:20:34.834Z,98637.69
2022-12-31T17:23:40.717Z,98649.84
2022-12-31T17:26:44.369Z,98651.47
2022-12-31T17:29:48.575Z,98643.31
2022-12-31T17:33:01.687Z,98642.13
2022-12-31T17:36:24.583Z,98647.34
2022-12-31T17:39:43.362Z,98671.38
2022-12-31T17:42:47.694Z,98656.81
2022-12-31T17:45:55.319Z,98657.31
2022-12-31T17:49:03.686Z,98662.19
2022-12-31T17:52:13.022Z,98661.41
2022-12-31T17:55:17.007Z,98644.16
2022-12-31T17:58:29.893Z,98660.13
2022-12-31T18:01:33.390Z,98668.44
2022-12-31T18:04:38.264Z,98658.19
2022-12-31T18:07:41.389Z,98658.34
2022-12-31T18:10:46.102Z,98672.19
2022-12-31T18:13:50.052Z,98664.38
2022-12-31T18:16:53.534Z,98677.41
2022-12-31T18:20:06.573Z,98671.06
2022-12-31T18:23:19.093Z,98670.44
2022-12-31T18:26:25.720Z,98671.09
2022-12-31T18:29:29.189Z,98676.41
2022-12-31T18:32:34.678Z,98674.28
2022-12-31T18:36:17.075Z,98672.06
2022-12-31T18:39:06.448Z,98669.78
2022-12-31T18:42:13.402Z,98669.94
2022-12-31T18:45:19.494Z,98683.56
2022-12-31T18:48:23.055Z,98690.72
2022-12-31T18:51:32.012Z,98682.75
2022-12-31T18:54:36.179Z,98684.69
2022-12-31T18:57:39.428Z,98679.31
2022-12-31T19:00:44.187Z,98665.16
2022-12-31T19:03:47.439Z,98656.34
2022-12-31T19:06:52.322Z,98675.63
2022-12-31T19:09:58.438Z,98673.47
2022-12-31T19:13:02.366Z,98681.75
2022-12-31T19:16:06.073Z,98679.13
2022-12-31T19:19:09.662Z,98685.59
2022-12-31T19:22:16.926Z,98682.53
2022-12-31T19:25:24.382Z,98686.25
2022-12-31T19:28:29.193Z,98683.28
2022-12-31T19:31:32.749Z,98690.59
2022-12-31T19:34:36.445Z,98695.13
2022-12-31T19:37:42.026Z,98682.94
2022-12-31T19:40:45.240Z,98694.00
2022-12-31T19:43:49.213Z,98683.44
2022-12-31T19:46:52.576Z,98691.72
2022-12-31T19:49:56.055Z,98690.09
2022-12-31T19:53:01.228Z,98699.50
2022-12-31T19:56:06.043Z,98707.28
2022-12-31T19:59:11.603Z,98693.38
2022-12-31T20:02:15.375Z,98699.84
2022-12-31T20:05:19.723Z,98688.19
2022-12-31T20:08:25.101Z,98692.56
2022-12-31T20:11:28.973Z,98691.44
2022-12-31T20:14:32.871Z,98671.00
2022-12-31T20:17:39.320Z,98671.50
2022-12-31T20:20:55.078Z,98681.06
2022-12-31T20:24:00.572Z,98691.44
2022-12-31T20:27:04.441Z,98684.28
2022-12-31T20:30:10.782Z,98677.31
2022-12-31T20:33:18.892Z,98676.50
2022-12-31T20:36:23.926Z,98685.28
2022-12-31T20:39:28.964Z,98678.66
2022-12-31T20:42:32.383Z,98680.59
2022-12-31T20:45:35.917Z,98685.59
2022-12-31T20:48:39.452Z,98685.94
2022-12-31T20:51:48.852Z,98684.28
2022-12-31T20:54:56.734Z,98680.53
2022-12-31T20:58:00.572Z,98680.69
2022-12-31T21:01:08.389Z,98669.81
2022-12-31T21:04:12.145Z,98684.88
2022-12-31T21:07:15.694Z,98689.59
2022-12-31T21:10:20.733Z,98685.72
2022-12-31T21:13:24.992Z,98676.44
2022-12-31T21:16:29.705Z,98690.53
2022-12-31T21:19:32.993Z,98698.59
2022-12-31T21:22:36.677Z,98701.34
2022-12-31T21:25:43.115Z,98691.94
2022-12-31T21:28:46.700Z,98692.59
2022-12-31T21:31:50.013Z,98698.13
2022-12-31T21:35:31.108Z,98696.81
2022-12-31T21:38:17.364Z,98690.78
2022-12-31T21:41:39.499Z,98694.88
2022-12-31T21:44:42.818Z,98697.44
2022-12-31T21:48:09.130Z,98705.41
2022-12-31T21:51:14.235Z,98714.81
2022-12-31T21:54:37.625Z,98715.63
2022-12-31T21:58:15.659Z,98722.25
2022-12-31T22:01:26.197Z,98720.63
2022-12-31T22:07:53.523Z,98723.69
2022-12-31T22:10:57.292Z,98721.44
2022-12-31T22:14:02.501Z,98727.78
2022-12-31T22:17:05.843Z,98714.28
2022-12-31T22:20:27.128Z,98715.94
2022-12-31T22:23:32.552Z,98718.50
2022-12-31T22:26:36.883Z,98720.13
2022-12-31T22:29:43.788Z,98723.91
2022-12-31T22:32:47.343Z,98724.53
2022-12-31T22:35:59.622Z,98714.69
2022-12-31T22:39:03.424Z,98712.66
2022-12-31T22:42:07.005Z,98706.03
2022-12-31T22:45:12.822Z,98708.16
2022-12-31T22:48:16.160Z,98706.03
2022-12-31T22:51:21.093Z,98712.03
2022-12-31T22:54:24.436Z,98701.19
2022-12-31T22:57:27.994Z,98717.44
2022-12-31T23:00:43.850Z,98736.22
2022-12-31T23:03:48.381Z,98728.56
2022-12-31T23:06:51.808Z,98715.28
2022-12-31T23:10:13.008Z,98724.56
2022-12-31T23:13:33.995Z,98720.38
2022-12-31T23:16:56.574Z,98719.56
2022-12-31T23:20:18.023Z,98727.47
2022-12-31T23:23:21.692Z,98716.56
2022-12-31T23:26:24.903Z,98723.22
2022-12-31T23:29:28.531Z,98713.63
2022-12-31T23:32:33.191Z,98713.63
2022-12-31T23:35:36.723Z,98710.13
2022-12-31T23:38:39.942Z,98727.00
2022-12-31T23:41:44.173Z,98739.53
2022-12-31T23:44:47.399Z,98718.88
2022-12-31T23:47:52.234Z,98720.50
2022-12-31T23:50:55.566Z,98708.97
2022-12-31T23:53:59.171Z,98717.06
2022-12-31T23:57:02.395Z,98708.78
